Time;durP1;ratioP1;P1;durP2;ratioP2;P2;SDS_P1;SDS_P2;PMS_P1;PMS_P2;Temp;Humidity;BMP_temperature;BMP_pressure;BME280_temperature;BME280_humidity;BME280_pressure;Samples;Min_cycle;Max_cycle;Signal;HPM_P1;HPM_P2
2020/12/26 00:02:32;;;;;;;12.27;2.67;;;;;;;;;;4906752;29;20052;-79
2020/12/26 00:05:11;;;;;;;14.75;2.85;;;;;;;;;;4909208;29;20049;-77
2020/12/26 00:08:23;;;;;;;8.30;2.80;;;;;;;;;;4893764;29;20465;-77
2020/12/26 00:11:01;;;;;;;9.32;2.35;;;;;;;;;;4906471;29;20060;-77
2020/12/26 00:13:38;;;;;;;8.60;2.63;;;;;;;;;;4894790;29;20088;-77
2020/12/26 00:16:33;;;;;;;9.13;2.55;;;;;;;;;;4933922;29;20052;-79
2020/12/26 00:19:23;;;;;;;11.38;2.65;;;;;;;;;;4939724;29;20067;-77
2020/12/26 00:22:10;;;;;;;12.13;2.97;;;;;;;;;;4932535;29;20067;-78
2020/12/26 00:24:55;;;;;;;11.38;2.55;;;;;;;;;;4933483;29;20126;-79
2020/12/26 00:27:26;;;;;;;10.60;3.10;;;;;;;;;;4949677;29;20051;-77
2020/12/26 00:30:06;;;;;;;13.60;2.97;;;;;;;;;;4936568;29;20067;-78
2020/12/26 00:32:52;;;;;;;9.55;2.80;;;;;;;;;;4941926;29;20066;-77
2020/12/26 00:35:41;;;;;;;11.40;2.60;;;;;;;;;;4937246;29;20047;-79
2020/12/26 00:38:28;;;;;;;6.18;2.80;;;;;;;;;;4929489;29;20052;-77
2020/12/26 00:41:27;;;;;;;8.23;2.38;;;;;;;;;;4923802;29;20122;-78
2020/12/26 00:43:58;;;;;;;13.80;2.92;;;;;;;;;;4937476;29;20050;-77
2020/12/26 00:46:44;;;;;;;10.57;3.30;;;;;;;;;;4950405;29;20067;-77
2020/12/26 00:49:20;;;;;;;10.75;3.05;;;;;;;;;;4923086;29;20044;-78
2020/12/26 00:51:47;;;;;;;17.27;2.97;;;;;;;;;;4937879;29;20709;-77
2020/12/26 00:54:14;;;;;;;11.85;3.38;;;;;;;;;;4937897;29;20040;-77
2020/12/26 00:56:40;;;;;;;15.82;3.83;;;;;;;;;;4920914;29;20051;-77
2020/12/26 00:59:06;;;;;;;10.75;3.20;;;;;;;;;;4920278;29;20054;-76
2020/12/26 01:01:33;;;;;;;11.00;3.50;;;;;;;;;;4937796;29;20050;-78
2020/12/26 01:04:02;;;;;;;7.50;3.30;;;;;;;;;;4937086;29;20050;-78
2020/12/26 01:06:28;;;;;;;13.43;3.70;;;;;;;;;;4952144;29;20046;-77
2020/12/26 01:08:54;;;;;;;10.25;3.33;;;;;;;;;;4951837;29;20040;-78
2020/12/26 01:11:21;;;;;;;12.05;3.63;;;;;;;;;;4937447;29;20044;-76
2020/12/26 01:13:48;;;;;;;10.77;3.70;;;;;;;;;;4920398;29;20457;-77
2020/12/26 01:16:15;;;;;;;10.55;3.65;;;;;;;;;;4936063;29;20075;-76
2020/12/26 01:18:41;;;;;;;8.90;3.55;;;;;;;;;;4936053;29;20051;-77
2020/12/26 01:21:07;;;;;;;11.98;3.88;;;;;;;;;;4952758;29;20408;-79
2020/12/26 01:23:34;;;;;;;10.93;3.97;;;;;;;;;;4936353;29;20059;-78
2020/12/26 01:26:00;;;;;;;15.70;3.92;;;;;;;;;;4936487;29;20040;-77
2020/12/26 01:28:27;;;;;;;13.82;3.75;;;;;;;;;;4936293;29;20695;-77
2020/12/26 01:30:53;;;;;;;12.40;4.03;;;;;;;;;;4936111;29;20044;-77
2020/12/26 01:33:19;;;;;;;10.02;3.50;;;;;;;;;;4935861;29;20072;-79
2020/12/26 01:35:45;;;;;;;7.05;3.25;;;;;;;;;;4920824;29;20051;-76
2020/12/26 01:38:11;;;;;;;10.55;3.20;;;;;;;;;;4935763;29;20051;-76
2020/12/26 01:40:37;;;;;;;14.43;3.45;;;;;;;;;;4935881;29;20050;-77
2020/12/26 01:43:04;;;;;;;12.05;3.25;;;;;;;;;;4935691;29;20596;-76
2020/12/26 01:45:31;;;;;;;10.15;3.65;;;;;;;;;;4919140;29;20039;-77
2020/12/26 01:47:57;;;;;;;15.50;3.50;;;;;;;;;;4935392;29;20040;-77
2020/12/26 01:53:52;;;;;;;7.60;2.88;;;;;;;;;;4936892;29;20126;-78
2020/12/26 01:56:19;;;;;;;9.18;2.65;;;;;;;;;;4937517;29;20051;-77
2020/12/26 01:58:45;;;;;;;9.50;3.00;;;;;;;;;;4939123;29;20147;-76
2020/12/26 02:01:11;;;;;;;10.43;3.00;;;;;;;;;;4922453;29;20471;-77
2020/12/26 02:03:41;;;;;;;10.73;3.47;;;;;;;;;;4952050;29;20122;-77
2020/12/26 02:06:08;;;;;;;11.68;3.15;;;;;;;;;;4939340;29;20046;-75
2020/12/26 02:08:37;;;;;;;11.05;3.15;;;;;;;;;;4938289;29;20479;-76
2020/12/26 02:11:04;;;;;;;7.13;3.30;;;;;;;;;;4937178;29;20115;-79
2020/12/26 02:13:34;;;;;;;8.93;2.95;;;;;;;;;;4938248;29;20526;-79
2020/12/26 02:16:07;;;;;;;9.45;3.10;;;;;;;;;;4938843;29;20663;-80
2020/12/26 02:18:34;;;;;;;14.15;3.38;;;;;;;;;;4938555;29;20048;-79
2020/12/26 02:27:57;;;;;;;12.13;2.83;;;;;;;;;;4956040;29;20031;-77
2020/12/26 02:30:23;;;;;;;14.48;2.70;;;;;;;;;;4938118;29;20051;-76
2020/12/26 02:32:50;;;;;;;10.73;3.22;;;;;;;;;;4922363;29;20051;-76
2020/12/26 02:35:17;;;;;;;9.75;3.10;;;;;;;;;;4937669;29;20503;-77
2020/12/26 02:37:44;;;;;;;16.83;3.50;;;;;;;;;;4937488;29;20062;-74
2020/12/26 02:40:12;;;;;;;13.73;3.53;;;;;;;;;;4952965;28;20047;-77
2020/12/26 02:42:39;;;;;;;9.82;3.72;;;;;;;;;;4939103;29;20043;-77
2020/12/26 02:45:07;;;;;;;8.98;3.83;;;;;;;;;;4937969;29;20046;-77
2020/12/26 02:47:34;;;;;;;10.20;3.75;;;;;;;;;;4938660;29;20048;-77
2020/12/26 02:50:01;;;;;;;8.20;2.90;;;;;;;;;;4922379;29;20051;-77
2020/12/26 02:52:29;;;;;;;8.02;3.38;;;;;;;;;;4937484;29;20526;-78
2020/12/26 02:54:56;;;;;;;9.40;3.35;;;;;;;;;;4937099;28;20051;-78
2020/12/26 02:57:23;;;;;;;10.48;3.55;;;;;;;;;;4953756;28;20043;-78
2020/12/26 02:59:49;;;;;;;12.50;3.80;;;;;;;;;;4952238;29;20047;-77
2020/12/26 03:02:21;;;;;;;11.55;3.65;;;;;;;;;;4934251;29;20059;-77
2020/12/26 03:04:49;;;;;;;12.48;3.22;;;;;;;;;;4949917;29;20040;-77
2020/12/26 03:07:16;;;;;;;10.32;3.30;;;;;;;;;;4933995;29;20048;-77
2020/12/26 03:09:44;;;;;;;8.45;3.55;;;;;;;;;;4949072;29;20050;-77
2020/12/26 03:12:12;;;;;;;10.85;3.38;;;;;;;;;;4934138;29;20063;-77
2020/12/26 03:14:39;;;;;;;5.93;2.85;;;;;;;;;;4933568;29;20050;-77
2020/12/26 03:17:06;;;;;;;10.43;3.47;;;;;;;;;;4934435;29;20048;-78
2020/12/26 03:19:33;;;;;;;15.13;3.28;;;;;;;;;;4934511;29;20526;-79
2020/12/26 03:22:00;;;;;;;11.68;3.33;;;;;;;;;;4934182;29;20563;-77
2020/12/26 03:24:26;;;;;;;12.07;3.10;;;;;;;;;;4949767;29;20134;-77
2020/12/26 03:26:53;;;;;;;14.27;3.13;;;;;;;;;;4934221;29;20145;-78
2020/12/26 03:29:20;;;;;;;10.38;3.28;;;;;;;;;;4949878;29;20063;-78
2020/12/26 03:31:46;;;;;;;11.88;3.83;;;;;;;;;;4950189;29;20039;-78
2020/12/26 03:34:13;;;;;;;12.45;3.78;;;;;;;;;;4934352;29;20785;-76
2020/12/26 03:36:39;;;;;;;12.73;3.78;;;;;;;;;;4934289;29;20151;-77
2020/12/26 03:39:05;;;;;;;9.00;3.88;;;;;;;;;;4935521;29;20588;-76
2020/12/26 03:41:33;;;;;;;11.40;3.60;;;;;;;;;;4935330;29;20083;-78
2020/12/26 03:43:59;;;;;;;9.55;3.70;;;;;;;;;;4934964;29;20227;-77
2020/12/26 03:46:25;;;;;;;14.00;4.20;;;;;;;;;;4934691;29;20048;-77
2020/12/26 03:48:52;;;;;;;11.45;4.05;;;;;;;;;;4917485;29;20048;-79
2020/12/26 03:51:30;;;;;;;13.80;4.15;;;;;;;;;;4934782;29;20043;-78
2020/12/26 03:53:56;;;;;;;9.30;4.30;;;;;;;;;;4933421;29;20051;-78
2020/12/26 03:56:23;;;;;;;13.15;4.03;;;;;;;;;;4933347;29;20052;-78
2020/12/26 03:58:50;;;;;;;14.02;4.55;;;;;;;;;;4934964;29;20052;-78
2020/12/26 04:01:16;;;;;;;13.13;4.38;;;;;;;;;;4934552;29;20051;-78
2020/12/26 04:03:43;;;;;;;7.40;4.18;;;;;;;;;;4917289;29;20039;-75
2020/12/26 04:06:09;;;;;;;18.08;4.60;;;;;;;;;;4935111;29;20047;-77
2020/12/26 04:08:37;;;;;;;17.80;4.90;;;;;;;;;;4937407;29;20075;-78
2020/12/26 04:11:03;;;;;;;11.73;4.57;;;;;;;;;;4937631;29;20051;-77
2020/12/26 04:13:30;;;;;;;11.30;4.95;;;;;;;;;;4921687;29;20397;-77
2020/12/26 04:15:57;;;;;;;12.98;4.38;;;;;;;;;;4938750;29;20415;-77
2020/12/26 04:18:24;;;;;;;12.43;4.80;;;;;;;;;;4938502;29;20573;-78
2020/12/26 04:20:51;;;;;;;15.38;5.07;;;;;;;;;;4937290;29;20055;-77
2020/12/26 04:23:17;;;;;;;10.73;5.00;;;;;;;;;;4938500;29;20603;-77
2020/12/26 04:25:44;;;;;;;12.48;5.10;;;;;;;;;;4938541;29;20495;-78
2020/12/26 04:28:10;;;;;;;14.18;5.43;;;;;;;;;;4937591;29;20119;-79
2020/12/26 04:30:41;;;;;;;15.82;5.40;;;;;;;;;;4937498;29;20044;-78
2020/12/26 04:33:07;;;;;;;13.48;5.78;;;;;;;;;;4952455;29;20054;-77
2020/12/26 04:35:34;;;;;;;18.50;5.85;;;;;;;;;;4938116;29;20051;-76
2020/12/26 04:38:01;;;;;;;14.25;5.38;;;;;;;;;;4936834;29;20083;-77
2020/12/26 04:40:27;;;;;;;12.63;5.72;;;;;;;;;;4953043;29;20063;-77
2020/12/26 04:42:54;;;;;;;20.85;5.80;;;;;;;;;;4921303;29;20511;-76
2020/12/26 04:45:21;;;;;;;14.35;5.75;;;;;;;;;;4938052;29;20491;-76
2020/12/26 04:47:54;;;;;;;10.13;5.85;;;;;;;;;;4937857;29;20039;-77
2020/12/26 04:50:32;;;;;;;12.00;5.68;;;;;;;;;;4936399;29;20519;-78
2020/12/26 04:53:03;;;;;;;15.70;5.55;;;;;;;;;;4938012;29;20047;-76
2020/12/26 04:55:30;;;;;;;13.27;5.72;;;;;;;;;;4938190;29;20048;-77
2020/12/26 04:58:06;;;;;;;17.00;6.00;;;;;;;;;;4937280;29;20431;-76
2020/12/26 05:00:33;;;;;;;15.65;6.35;;;;;;;;;;4921155;29;20455;-76
2020/12/26 05:03:04;;;;;;;13.55;6.18;;;;;;;;;;4938181;29;20047;-77
2020/12/26 05:05:34;;;;;;;13.82;6.00;;;;;;;;;;4938039;29;20051;-78
2020/12/26 05:08:06;;;;;;;16.40;6.45;;;;;;;;;;4951551;29;20058;-79
2020/12/26 05:10:33;;;;;;;17.52;6.32;;;;;;;;;;4937058;29;20058;-79
2020/12/26 05:12:59;;;;;;;13.00;6.63;;;;;;;;;;4936261;29;20052;-77
2020/12/26 05:15:26;;;;;;;12.30;6.22;;;;;;;;;;4937167;29;20109;-79
2020/12/26 05:17:52;;;;;;;15.98;7.13;;;;;;;;;;4936751;29;20054;-78
2020/12/26 05:20:23;;;;;;;19.48;6.50;;;;;;;;;;4935410;29;20416;-78
2020/12/26 05:23:05;;;;;;;23.15;7.53;;;;;;;;;;4937345;29;20052;-78
2020/12/26 05:25:32;;;;;;;15.95;7.07;;;;;;;;;;4939912;29;20036;-78
2020/12/26 05:28:15;;;;;;;18.77;7.65;;;;;;;;;;4959865;29;20102;-77
2020/12/26 05:30:42;;;;;;;16.40;6.78;;;;;;;;;;4941897;29;20107;-78
2020/12/26 05:33:11;;;;;;;19.52;7.35;;;;;;;;;;4971699;28;20539;-78
2020/12/26 05:35:42;;;;;;;13.35;6.78;;;;;;;;;;4957748;29;20047;-79
2020/12/26 05:38:18;;;;;;;19.73;7.30;;;;;;;;;;4964051;29;20051;-77
2020/12/26 05:40:49;;;;;;;21.42;7.18;;;;;;;;;;4966698;29;20112;-77
2020/12/26 05:43:17;;;;;;;16.88;6.68;;;;;;;;;;4949607;28;20052;-80
2020/12/26 05:45:43;;;;;;;19.55;6.88;;;;;;;;;;4938516;29;20067;-78
2020/12/26 05:48:14;;;;;;;20.25;7.55;;;;;;;;;;4942882;29;20071;-78
2020/12/26 05:50:42;;;;;;;16.00;6.85;;;;;;;;;;4941259;29;20044;-78
2020/12/26 05:53:09;;;;;;;15.35;6.82;;;;;;;;;;4919616;29;20055;-78
2020/12/26 05:55:36;;;;;;;18.92;7.45;;;;;;;;;;4936507;29;20114;-78
2020/12/26 05:58:02;;;;;;;12.80;6.90;;;;;;;;;;4935639;29;20058;-79
2020/12/26 06:00:33;;;;;;;19.52;6.95;;;;;;;;;;4936573;29;20078;-78
2020/12/26 06:03:02;;;;;;;15.60;7.00;;;;;;;;;;4936750;29;20036;-77
2020/12/26 06:05:31;;;;;;;13.73;6.72;;;;;;;;;;4937327;29;20432;-79
2020/12/26 06:07:57;;;;;;;14.48;6.63;;;;;;;;;;4936475;29;20039;-79
2020/12/26 06:10:24;;;;;;;16.85;6.70;;;;;;;;;;4935532;29;20130;-80
2020/12/26 06:12:50;;;;;;;16.27;7.10;;;;;;;;;;4951434;29;20063;-80
2020/12/26 06:15:20;;;;;;;11.52;6.28;;;;;;;;;;4936782;29;20130;-79
2020/12/26 06:17:49;;;;;;;13.30;5.88;;;;;;;;;;4935460;29;20587;-79
2020/12/26 06:20:16;;;;;;;15.35;5.97;;;;;;;;;;4936286;29;20044;-79
2020/12/26 06:22:43;;;;;;;15.23;5.72;;;;;;;;;;4936285;29;20044;-79
2020/12/26 06:25:13;;;;;;;12.20;6.10;;;;;;;;;;4936128;29;20169;-77
2020/12/26 06:27:59;;;;;;;18.17;5.15;;;;;;;;;;4935247;29;20044;-78
2020/12/26 06:30:27;;;;;;;13.63;5.05;;;;;;;;;;4935852;29;20067;-77
2020/12/26 06:32:54;;;;;;;11.02;4.82;;;;;;;;;;4935672;29;20126;-78
2020/12/26 06:35:21;;;;;;;12.55;4.85;;;;;;;;;;4918612;29;20061;-79
2020/12/26 06:37:47;;;;;;;11.57;4.07;;;;;;;;;;4917672;29;20491;-77
2020/12/26 06:40:23;;;;;;;16.48;4.60;;;;;;;;;;4933028;29;20062;-78
2020/12/26 06:42:50;;;;;;;9.93;4.65;;;;;;;;;;4933687;29;20389;-79
2020/12/26 06:45:28;;;;;;;12.00;4.50;;;;;;;;;;4950786;28;20403;-77
2020/12/26 06:47:54;;;;;;;12.40;4.50;;;;;;;;;;4952515;29;20082;-78
2020/12/26 06:50:25;;;;;;;15.75;4.47;;;;;;;;;;4954537;29;20035;-87
2020/12/26 06:53:35;;;;;;;12.93;4.70;;;;;;;;;;4886687;29;20044;-78
2020/12/26 07:04:17;;;;;;;;;;;;;;;;;;;;;
2020/12/26 07:11:23;;;;;;;6.72;2.92;;;;;;;;;;4862087;29;20540;-78
2020/12/26 07:15:07;;;;;;;10.20;2.83;;;;;;;;;;4890684;29;20066;-81
2020/12/26 07:18:31;;;;;;;9.50;2.97;;;;;;;;;;4843632;29;20050;-79
2020/12/26 07:22:09;;;;;;;;;;;;;;;;;;;;;
2020/12/26 07:29:38;;;;;;;6.73;2.57;;;;;;;;;;4798120;29;20053;-80
2020/12/26 07:37:35;;;;;;;6.90;2.72;;;;;;;;;;4778898;29;20062;-79
2020/12/26 07:44:47;;;;;;;8.35;2.20;;;;;;;;;;4754434;30;20135;-79
2020/12/26 07:47:44;;;;;;;5.75;2.35;;;;;;;;;;4752189;30;20043;-77
2020/12/26 07:51:09;;;;;;;;;;;;;;;;;;;;;
2020/12/26 07:54:12;;;;;;;;;;;;;;;;;;4707973;30;20033;-78
2020/12/26 07:58:00;;;;;;;5.63;2.55;;;;;;;;;;4700629;30;19931;-78
2020/12/26 08:01:15;;;;;;;6.88;2.30;;;;;;;;;;4703346;30;20037;-79
2020/12/26 08:08:14;;;;;;;;;;;;;;;;;;;;;
2020/12/26 08:11:37;;;;;;;5.40;2.10;;;;;;;;;;4697916;30;20065;-78
2020/12/26 08:14:28;;;;;;;6.03;2.10;;;;;;;;;;4742756;29;20340;-80
2020/12/26 08:21:35;;;;;;;9.75;2.08;;;;;;;;;;4762151;29;20054;-78
2020/12/26 08:24:46;;;;;;;4.85;2.15;;;;;;;;;;4807465;29;20065;-79
2020/12/26 08:39:02;;;;;;;5.20;2.40;;;;;;;;;;4802091;29;20183;-78
2020/12/26 08:46:02;;;;;;;7.28;1.90;;;;;;;;;;4811981;29;19932;-79
2020/12/26 08:53:05;;;;;;;5.22;1.70;;;;;;;;;;4761607;29;20054;-80
2020/12/26 09:01:16;;;;;;;6.25;1.83;;;;;;;;;;4756281;30;20040;-78
2020/12/26 09:04:17;;;;;;;;;;;;;;;;;;;;;
2020/12/26 09:07:30;;;;;;;6.13;1.88;;;;;;;;;;4806886;29;20679;-80
2020/12/26 09:11:27;;;;;;;;;;;;;;;;;;;;;
2020/12/26 09:15:05;;;;;;;;;;;;;;;;;;;;;
2020/12/26 09:18:20;;;;;;;;;;;;;;;;;;;;;
2020/12/26 09:26:17;;;;;;;6.13;2.28;;;;;;;;;;4835314;29;20186;-79
2020/12/26 09:29:57;;;;;;;4.68;1.92;;;;;;;;;;4680185;30;20554;-80
2020/12/26 09:33:17;;;;;;;8.48;1.98;;;;;;;;;;4739784;30;20088;-80
2020/12/26 09:44:05;;;;;;;7.78;1.95;;;;;;;;;;4710723;30;20143;-80
2020/12/26 10:02:50;;;;;;;8.85;2.03;;;;;;;;;;4820447;29;20106;-79
2020/12/26 10:22:16;;;;;;;;;;;;;;;;;;;;;
2020/12/26 10:26:03;;;;;;;7.78;2.40;;;;;;;;;;4795855;29;20448;-81
2020/12/26 10:33:35;;;;;;;7.60;2.30;;;;;;;;;;4883637;29;20039;-78
2020/12/26 10:36:43;;;;;;;9.23;2.55;;;;;;;;;;4847211;29;20195;-82
2020/12/26 10:39:55;;;;;;;5.78;2.42;;;;;;;;;;4823171;29;20080;-77
2020/12/26 10:43:04;;;;;;;11.02;2.78;;;;;;;;;;4855445;29;20041;-78
2020/12/26 10:54:38;;;;;;;7.32;2.05;;;;;;;;;;4800601;29;20050;-78
2020/12/26 11:17:05;;;;;;;6.22;2.25;;;;;;;;;;4762354;30;20044;-79
2020/12/26 11:20:01;;;;;;;7.97;2.50;;;;;;;;;;4727416;30;20052;-80
2020/12/26 11:28:04;;;;;;;;;;;;;;;;;;;;;
2020/12/26 11:31:31;;;;;;;7.57;2.88;;;;;;;;;;4817578;29;20046;-77
2020/12/26 11:34:44;;;;;;;12.93;2.90;;;;;;;;;;4860825;29;20058;-77
2020/12/26 11:38:32;;;;;;;;;;;;;;;;;;;;;
2020/12/26 11:41:55;;;;;;;7.20;3.10;;;;;;;;;;4698454;30;20055;-77
2020/12/26 11:45:19;;;;;;;;;;;;;;;;;;4711259;30;20555;-78
2020/12/26 11:49:23;;;;;;;6.72;2.88;;;;;;;;;;4818996;29;19919;-80
2020/12/26 11:52:49;;;;;;;8.27;2.53;;;;;;;;;;4854604;29;20053;-80
2020/12/26 12:00:30;;;;;;;9.20;3.10;;;;;;;;;;4891187;29;20123;-78
2020/12/26 12:04:19;;;;;;;;;;;;;;;;;;;;;
2020/12/26 12:12:14;;;;;;;11.20;4.10;;;;;;;;;;4854903;29;20482;-78
2020/12/26 12:15:46;;;;;;;12.02;3.67;;;;;;;;;;4828659;29;20058;-79
2020/12/26 12:19:17;;;;;;;12.40;3.58;;;;;;;;;;4802388;29;20050;-78
2020/12/26 12:22:39;;;;;;;9.40;3.55;;;;;;;;;;4864792;29;20139;-79
2020/12/26 12:29:58;;;;;;;11.63;3.80;;;;;;;;;;4799141;29;20035;-79
2020/12/26 12:40:48;;;;;;;;;;;;;;;;;;;;;
2020/12/26 12:48:36;;;;;;;;;;;;;;;;;;;;;
2020/12/26 12:51:45;;;;;;;9.98;4.22;;;;;;;;;;4791320;29;20423;-78
2020/12/26 12:54:55;;;;;;;9.68;4.40;;;;;;;;;;4849913;23;20152;-79
2020/12/26 12:57:24;;;;;;;8.13;4.13;;;;;;;;;;4998132;28;20096;-79
2020/12/26 12:59:51;;;;;;;12.02;4.78;;;;;;;;;;5015667;28;20046;-79
2020/12/26 13:02:17;;;;;;;13.32;4.60;;;;;;;;;;5033038;28;20048;-77
2020/12/26 13:04:43;;;;;;;13.25;5.50;;;;;;;;;;4994306;28;20046;-78
2020/12/26 13:07:09;;;;;;;9.68;4.53;;;;;;;;;;5008561;28;20070;-75
2020/12/26 13:09:36;;;;;;;10.63;4.32;;;;;;;;;;4993395;28;20072;-79
2020/12/26 13:12:02;;;;;;;12.98;5.47;;;;;;;;;;5012959;28;20121;-78
2020/12/26 13:14:28;;;;;;;13.13;4.85;;;;;;;;;;4995955;28;20093;-78
2020/12/26 13:16:55;;;;;;;12.20;5.03;;;;;;;;;;5006017;28;20038;-80
2020/12/26 13:19:21;;;;;;;10.38;4.72;;;;;;;;;;4997774;28;20073;-77
2020/12/26 13:21:49;;;;;;;12.10;4.97;;;;;;;;;;4997638;28;20072;-79
2020/12/26 13:24:16;;;;;;;12.88;4.88;;;;;;;;;;4998766;28;20049;-79
2020/12/26 13:26:45;;;;;;;12.90;5.07;;;;;;;;;;4981592;28;20043;-78
2020/12/26 13:29:13;;;;;;;12.85;4.68;;;;;;;;;;4998688;28;20042;-78
2020/12/26 13:31:41;;;;;;;14.40;5.25;;;;;;;;;;5014450;28;20567;-78
2020/12/26 13:34:09;;;;;;;13.20;5.20;;;;;;;;;;5010630;28;20548;-76
2020/12/26 13:36:36;;;;;;;13.48;4.85;;;;;;;;;;4996270;28;20061;-78
2020/12/26 13:39:02;;;;;;;16.77;6.03;;;;;;;;;;4996514;28;20042;-78
2020/12/26 13:41:29;;;;;;;18.50;5.72;;;;;;;;;;5012790;28;20050;-79
2020/12/26 13:43:56;;;;;;;15.38;5.47;;;;;;;;;;4983389;28;20303;-78
2020/12/26 13:46:22;;;;;;;12.30;5.65;;;;;;;;;;4992978;28;20380;-78
2020/12/26 13:48:49;;;;;;;15.88;6.10;;;;;;;;;;4960146;28;20047;-77
2020/12/26 13:51:15;;;;;;;16.50;6.30;;;;;;;;;;4994165;28;20038;-78
2020/12/26 13:53:41;;;;;;;13.82;5.60;;;;;;;;;;4995118;28;20092;-78
2020/12/26 13:56:07;;;;;;;13.13;5.80;;;;;;;;;;4976072;28;20518;-78
2020/12/26 13:58:53;;;;;;;15.05;6.65;;;;;;;;;;4993776;28;20057;-77
2020/12/26 14:01:19;;;;;;;12.73;6.25;;;;;;;;;;4994990;28;20054;-78
2020/12/26 14:03:45;;;;;;;12.63;6.38;;;;;;;;;;4967121;28;20042;-78
2020/12/26 14:06:14;;;;;;;13.30;6.80;;;;;;;;;;4974353;28;20126;-78
2020/12/26 14:08:41;;;;;;;16.17;6.32;;;;;;;;;;4961046;28;20069;-78
2020/12/26 14:11:07;;;;;;;13.05;6.32;;;;;;;;;;4980960;28;20042;-77
2020/12/26 14:13:36;;;;;;;12.18;6.55;;;;;;;;;;4975751;28;20077;-77
2020/12/26 14:16:05;;;;;;;14.57;7.18;;;;;;;;;;4994703;28;20046;-77
2020/12/26 14:18:32;;;;;;;16.58;6.75;;;;;;;;;;4992754;28;20058;-78
2020/12/26 14:20:58;;;;;;;15.95;6.75;;;;;;;;;;4964014;28;20054;-78
2020/12/26 14:23:25;;;;;;;16.15;7.50;;;;;;;;;;4995041;28;20065;-77
2020/12/26 14:25:57;;;;;;;17.65;7.72;;;;;;;;;;4995055;28;20050;-77
2020/12/26 14:28:26;;;;;;;20.38;7.85;;;;;;;;;;4977537;28;20346;-78
2020/12/26 14:30:52;;;;;;;15.85;7.53;;;;;;;;;;4994975;28;20061;-78
2020/12/26 14:33:21;;;;;;;19.27;7.68;;;;;;;;;;5014256;28;20425;-76
2020/12/26 14:35:51;;;;;;;16.85;8.43;;;;;;;;;;5013084;28;20516;-76
2020/12/26 14:38:17;;;;;;;18.38;8.57;;;;;;;;;;4997784;28;20048;-78
2020/12/26 14:40:44;;;;;;;22.05;9.38;;;;;;;;;;5013935;28;20537;-78
2020/12/26 14:43:11;;;;;;;19.63;9.25;;;;;;;;;;5014500;28;20486;-78
2020/12/26 14:45:37;;;;;;;20.60;9.10;;;;;;;;;;5015549;28;20041;-77
2020/12/26 14:48:03;;;;;;;18.15;9.60;;;;;;;;;;5015897;28;20050;-79
2020/12/26 14:50:31;;;;;;;18.80;9.63;;;;;;;;;;5013782;28;20077;-77
2020/12/26 14:52:59;;;;;;;23.92;9.77;;;;;;;;;;5012380;28;20049;-78
2020/12/26 14:55:25;;;;;;;30.52;10.18;;;;;;;;;;5013841;28;20041;-78
2020/12/26 14:57:52;;;;;;;18.65;8.77;;;;;;;;;;5017118;28;20046;-77
2020/12/26 15:00:18;;;;;;;20.65;9.07;;;;;;;;;;5013286;28;20069;-78
2020/12/26 15:02:45;;;;;;;20.30;10.35;;;;;;;;;;5013643;28;20054;-79
2020/12/26 15:05:15;;;;;;;18.23;9.40;;;;;;;;;;4996091;28;20054;-79
2020/12/26 15:07:42;;;;;;;20.08;9.90;;;;;;;;;;4998463;28;20042;-79
2020/12/26 15:10:12;;;;;;;20.85;9.20;;;;;;;;;;5000035;28;20054;-79
2020/12/26 15:12:40;;;;;;;22.05;10.73;;;;;;;;;;5011392;28;20038;-77
2020/12/26 15:15:10;;;;;;;23.55;10.10;;;;;;;;;;4983463;28;20230;-79
2020/12/26 15:17:37;;;;;;;25.45;10.98;;;;;;;;;;4980331;28;20050;-78
2020/12/26 15:20:05;;;;;;;24.63;10.93;;;;;;;;;;5001813;28;20042;-78
2020/12/26 15:22:31;;;;;;;23.48;11.38;;;;;;;;;;4995137;28;20058;-79
2020/12/26 15:24:58;;;;;;;23.92;10.88;;;;;;;;;;5004404;28;20042;-78
2020/12/26 15:27:24;;;;;;;28.05;12.05;;;;;;;;;;4983704;28;20050;-79
2020/12/26 15:29:50;;;;;;;27.05;11.68;;;;;;;;;;5007095;28;20148;-79
2020/12/26 15:32:16;;;;;;;24.42;11.77;;;;;;;;;;5022882;28;20516;-79
2020/12/26 15:34:43;;;;;;;27.13;11.18;;;;;;;;;;5025777;28;20672;-79
2020/12/26 15:37:09;;;;;;;26.00;10.88;;;;;;;;;;5023347;28;20050;-79
2020/12/26 15:39:35;;;;;;;27.80;11.73;;;;;;;;;;5014843;28;20053;-78
2020/12/26 15:42:01;;;;;;;25.40;11.50;;;;;;;;;;5016888;28;20042;-78
2020/12/26 15:44:27;;;;;;;27.63;11.07;;;;;;;;;;5014698;28;20413;-78
2020/12/26 15:46:57;;;;;;;21.58;10.07;;;;;;;;;;5015061;28;20046;-78
2020/12/26 15:49:23;;;;;;;21.13;10.35;;;;;;;;;;5012105;28;20402;-78
2020/12/26 15:51:49;;;;;;;25.15;10.73;;;;;;;;;;5012090;28;20413;-77
2020/12/26 15:54:16;;;;;;;24.63;11.32;;;;;;;;;;5013073;28;20052;-78
2020/12/26 15:56:42;;;;;;;26.25;10.52;;;;;;;;;;5010739;28;20050;-78
2020/12/26 15:59:22;;;;;;;23.52;10.27;;;;;;;;;;5014683;28;20187;-79
2020/12/26 16:01:48;;;;;;;24.77;11.20;;;;;;;;;;5013779;28;20050;-79
2020/12/26 16:04:20;;;;;;;22.90;10.32;;;;;;;;;;5016129;28;20096;-79
2020/12/26 16:06:46;;;;;;;24.02;10.88;;;;;;;;;;5017599;28;20042;-79
2020/12/26 16:09:12;;;;;;;22.05;9.57;;;;;;;;;;5018203;28;20050;-80
2020/12/26 16:11:39;;;;;;;22.27;10.73;;;;;;;;;;5018304;28;20098;-79
2020/12/26 16:14:04;;;;;;;21.20;10.55;;;;;;;;;;5017001;28;20048;-80
2020/12/26 16:16:31;;;;;;;22.90;10.05;;;;;;;;;;5015464;28;20060;-79
2020/12/26 16:18:57;;;;;;;23.40;10.60;;;;;;;;;;5017639;28;20118;-80
2020/12/26 16:21:25;;;;;;;21.45;10.45;;;;;;;;;;5017802;28;20107;-79
2020/12/26 16:23:52;;;;;;;20.00;9.98;;;;;;;;;;5016968;28;20073;-79
2020/12/26 16:26:18;;;;;;;24.02;10.23;;;;;;;;;;4998889;28;20068;-80
2020/12/26 16:28:45;;;;;;;20.13;9.48;;;;;;;;;;5016493;28;20041;-79
2020/12/26 16:31:14;;;;;;;23.55;10.93;;;;;;;;;;4977999;28;20053;-79
2020/12/26 16:33:45;;;;;;;20.17;9.82;;;;;;;;;;4979288;28;20051;-80
2020/12/26 16:36:18;;;;;;;21.33;9.70;;;;;;;;;;4961749;28;20058;-79
2020/12/26 16:38:45;;;;;;;20.83;8.82;;;;;;;;;;4980178;28;20049;-80
2020/12/26 16:41:13;;;;;;;21.02;9.25;;;;;;;;;;4972503;28;20478;-79
2020/12/26 16:43:39;;;;;;;20.25;9.20;;;;;;;;;;4981141;28;20042;-80
2020/12/26 16:46:05;;;;;;;18.38;8.88;;;;;;;;;;4965091;28;20133;-80
2020/12/26 16:48:33;;;;;;;19.33;9.02;;;;;;;;;;4995894;28;20066;-79
2020/12/26 16:51:02;;;;;;;20.45;8.85;;;;;;;;;;4993902;28;20145;-82
2020/12/26 16:53:31;;;;;;;18.83;8.55;;;;;;;;;;4996515;28;20053;-79
2020/12/26 16:55:57;;;;;;;17.30;8.68;;;;;;;;;;4978290;28;20109;-79
2020/12/26 16:58:28;;;;;;;18.45;8.73;;;;;;;;;;4998060;28;20058;-78
2020/12/26 17:00:54;;;;;;;20.75;9.30;;;;;;;;;;4977853;28;20132;-80
2020/12/26 17:03:20;;;;;;;19.83;9.43;;;;;;;;;;4992837;28;20046;-79
2020/12/26 17:05:47;;;;;;;21.95;9.68;;;;;;;;;;4978396;28;20129;-77
2020/12/26 17:08:13;;;;;;;19.33;9.05;;;;;;;;;;4996160;28;20054;-80
2020/12/26 17:10:39;;;;;;;20.10;9.30;;;;;;;;;;4994162;28;20853;-78
2020/12/26 17:13:05;;;;;;;20.98;8.65;;;;;;;;;;4976619;28;20521;-78
2020/12/26 17:15:31;;;;;;;24.42;9.57;;;;;;;;;;4959417;28;20066;-78
2020/12/26 17:17:57;;;;;;;18.23;9.27;;;;;;;;;;4960981;28;20137;-79
2020/12/26 17:20:24;;;;;;;21.67;9.68;;;;;;;;;;4979228;28;20442;-78
2020/12/26 17:22:50;;;;;;;24.35;9.50;;;;;;;;;;4961743;28;20114;-78
2020/12/26 17:25:17;;;;;;;21.02;9.35;;;;;;;;;;4993858;28;20055;-81
2020/12/26 17:27:43;;;;;;;22.10;9.05;;;;;;;;;;4979920;28;20052;-78
2020/12/26 17:30:18;;;;;;;22.63;9.52;;;;;;;;;;5009519;28;20104;-80
2020/12/26 17:32:44;;;;;;;18.70;8.50;;;;;;;;;;5013599;28;20273;-78
2020/12/26 17:35:10;;;;;;;21.20;9.10;;;;;;;;;;4980099;28;20436;-79
2020/12/26 17:37:37;;;;;;;23.13;9.63;;;;;;;;;;4978283;28;20134;-78
2020/12/26 17:40:03;;;;;;;20.00;9.60;;;;;;;;;;4977314;28;20061;-78
2020/12/26 17:42:35;;;;;;;18.80;8.95;;;;;;;;;;4959684;28;20530;-78
2020/12/26 17:45:01;;;;;;;20.15;9.65;;;;;;;;;;4977793;28;20043;-78
2020/12/26 17:47:32;;;;;;;21.40;8.85;;;;;;;;;;4993730;28;20098;-78
2020/12/26 17:49:58;;;;;;;22.92;9.45;;;;;;;;;;4995047;28;20513;-78
2020/12/26 17:52:23;;;;;;;27.27;9.82;;;;;;;;;;4993790;28;20042;-79
2020/12/26 17:54:50;;;;;;;23.25;9.60;;;;;;;;;;4996020;28;20188;-79
2020/12/26 17:57:17;;;;;;;22.38;8.93;;;;;;;;;;4979520;28;20065;-80
2020/12/26 17:59:43;;;;;;;23.92;10.88;;;;;;;;;;4978081;28;21068;-79
2020/12/26 18:02:09;;;;;;;23.27;10.48;;;;;;;;;;4995429;28;20184;-79
2020/12/26 18:04:36;;;;;;;23.85;9.70;;;;;;;;;;4994481;28;20042;-79
2020/12/26 18:07:02;;;;;;;24.27;10.40;;;;;;;;;;4995458;28;20466;-78
2020/12/26 18:09:28;;;;;;;22.77;9.23;;;;;;;;;;4999323;28;20061;-78
2020/12/26 18:11:55;;;;;;;21.17;10.00;;;;;;;;;;4995214;28;20042;-79
2020/12/26 18:14:21;;;;;;;24.45;10.25;;;;;;;;;;4995329;28;20088;-79
2020/12/26 18:16:47;;;;;;;23.80;10.52;;;;;;;;;;4995047;28;20522;-78
2020/12/26 18:19:13;;;;;;;23.88;9.75;;;;;;;;;;4996617;28;20046;-79
2020/12/26 18:21:47;;;;;;;20.83;10.25;;;;;;;;;;4999338;28;20054;-79
2020/12/26 18:24:13;;;;;;;27.60;10.57;;;;;;;;;;4996691;28;20046;-79
2020/12/26 18:26:39;;;;;;;21.80;10.75;;;;;;;;;;4994713;28;20546;-80
2020/12/26 18:29:05;;;;;;;21.40;9.90;;;;;;;;;;4976119;28;20066;-77
2020/12/26 18:31:33;;;;;;;19.35;9.40;;;;;;;;;;5001379;28;20069;-77
2020/12/26 18:33:59;;;;;;;22.15;10.25;;;;;;;;;;5005815;28;20045;-78
2020/12/26 18:36:26;;;;;;;23.55;9.23;;;;;;;;;;5009450;28;20221;-78
2020/12/26 18:38:55;;;;;;;16.73;8.23;;;;;;;;;;5013756;28;20028;-77